Time;durP1;ratioP1;P1;durP2;ratioP2;P2;SDS_P1;SDS_P2;PMS_P1;PMS_P2;Temp;Humidity;BMP_temperature;BMP_pressure;BME280_temperature;BME280_humidity;BME280_pressure;Samples;Min_cycle;Max_cycle;Signal;HPM_P1;HPM_P2
2022/12/06 00:02:11;;;;;;;135.30;53.98;;;;;;;3.08;89.56;101020.92;1676355;83;20929;-78
2022/12/06 00:04:56;;;;;;;138.32;52.75;;;;;;;3.09;89.55;101011.56;1672827;83;20924;-77
2022/12/06 00:07:41;;;;;;;127.80;52.23;;;;;;;3.10;89.59;101009.05;1668884;83;21423;-78
2022/12/06 00:10:26;;;;;;;128.80;52.90;;;;;;;3.10;89.56;101005.63;1670179;83;21548;-78
2022/12/06 00:13:11;;;;;;;137.70;52.55;;;;;;;3.11;89.58;101004.38;1675291;83;20946;-78
2022/12/06 00:16:09;;;;;;;143.22;53.02;;;;;;;3.13;89.59;100999.27;1670892;83;21529;-78
2022/12/06 00:18:54;;;;;;;140.90;55.10;;;;;;;3.13;89.60;101003.97;1635628;85;20962;-78
2022/12/06 00:21:39;;;;;;;124.60;50.78;;;;;;;3.16;89.61;101000.61;1548125;83;5001440;-78
2022/12/06 00:24:24;;;;;;;139.72;53.42;;;;;;;3.16;89.62;100995.50;1657660;84;20977;-78
2022/12/06 00:27:09;;;;;;;128.72;50.92;;;;;;;3.17;89.60;100996.81;1672772;84;21608;-77
2022/12/06 00:29:54;;;;;;;140.77;53.35;;;;;;;3.17;89.61;100987.87;1673843;83;21565;-78
2022/12/06 00:32:39;;;;;;;133.95;52.73;;;;;;;3.18;89.60;100985.76;1673710;84;21354;-78
2022/12/06 00:35:24;;;;;;;139.15;55.15;;;;;;;3.19;89.63;100979.81;1674115;84;21012;-78
2022/12/06 00:38:09;;;;;;;137.77;53.33;;;;;;;3.20;89.61;100973.02;1673430;84;21565;-78
2022/12/06 00:41:04;;;;;;;138.00;53.28;;;;;;;3.20;89.62;100973.88;1671531;84;20943;-78
2022/12/06 00:43:51;;;;;;;146.77;52.15;;;;;;;3.23;89.66;100971.80;1675036;83;21586;-78
2022/12/06 00:46:36;;;;;;;137.20;52.55;;;;;;;3.25;89.66;100973.96;1674144;84;20938;-78
2022/12/06 00:49:20;;;;;;;137.72;53.02;;;;;;;3.26;89.64;100980.38;1672520;84;20981;-78
2022/12/06 00:52:06;;;;;;;136.47;53.35;;;;;;;3.26;89.64;100988.05;1670259;83;20969;-78
2022/12/06 00:54:51;;;;;;;135.15;53.52;;;;;;;3.26;89.63;100986.77;1670498;84;21486;-78
2022/12/06 00:57:36;;;;;;;150.05;55.63;;;;;;;3.27;89.65;100987.22;1670259;85;20957;-78
2022/12/06 01:00:21;;;;;;;137.88;52.58;;;;;;;3.28;89.65;100980.00;1669163;83;21403;-78
2022/12/06 01:03:06;;;;;;;137.20;53.02;;;;;;;3.29;89.65;100972.78;1670652;84;21358;-78
2022/12/06 01:05:51;;;;;;;142.55;55.55;;;;;;;3.29;89.66;100965.52;1669394;84;20919;-78
2022/12/06 01:08:36;;;;;;;147.80;55.65;;;;;;;3.29;89.66;100966.39;1673192;83;21034;-78
2022/12/06 01:11:23;;;;;;;152.77;54.03;;;;;;;3.30;89.66;100967.25;1666907;83;20960;-78
2022/12/06 01:14:07;;;;;;;;;;;;;;;3.29;89.68;100962.55;1674429;83;21537;-78
2022/12/06 01:16:52;;;;;;;129.23;50.33;;;;;;;3.29;89.76;100956.58;1668180;83;20591;-78
2022/12/06 01:19:37;;;;;;;139.60;51.45;;;;;;;3.31;89.74;100953.64;1662414;85;21005;-78
2022/12/06 01:22:22;;;;;;;152.93;52.58;;;;;;;3.31;89.75;100946.83;1665966;84;21425;-78
2022/12/06 01:25:08;;;;;;;133.57;51.90;;;;;;;3.32;89.74;100944.72;1659366;85;20926;-78
2022/12/06 01:27:52;;;;;;;142.30;54.75;;;;;;;3.32;89.76;100940.89;1668691;83;20918;-77
2022/12/06 01:30:39;;;;;;;138.15;53.87;;;;;;;3.32;89.76;100943.86;1667953;85;20926;-78
2022/12/06 01:33:25;;;;;;;144.15;52.98;;;;;;;3.32;89.78;100933.64;1670421;84;20985;-77
2022/12/06 01:36:23;;;;;;;140.73;53.40;;;;;;;3.32;89.80;100935.78;1663270;84;20939;-77
2022/12/06 01:39:09;;;;;;;141.37;53.05;;;;;;;3.33;89.79;100941.75;1665705;85;21300;-77
2022/12/06 01:41:54;;;;;;;148.93;53.95;;;;;;;3.35;89.83;100943.05;1667268;83;20958;-78
2022/12/06 01:44:45;;;;;;;144.07;54.48;;;;;;;3.35;89.84;100949.45;1663646;84;21444;-78
2022/12/06 01:47:38;;;;;;;132.72;52.35;;;;;;;3.34;89.80;100948.58;1668057;85;20954;-78
2022/12/06 01:50:28;;;;;;;138.45;54.30;;;;;;;3.35;89.84;100949.45;1666087;85;20946;-78
2022/12/06 01:53:13;;;;;;;135.20;53.63;;;;;;;3.35;89.83;100957.11;1667185;85;21818;-77
2022/12/06 01:55:57;;;;;;;152.32;56.58;;;;;;;3.35;89.87;100952.00;1662231;83;22053;-78
2022/12/06 01:58:44;;;;;;;144.70;54.45;;;;;;;3.35;89.85;100949.45;1668896;83;21464;-78
2022/12/06 02:01:30;;;;;;;143.47;54.88;;;;;;;3.36;89.84;100952.03;1669528;84;21022;-78
2022/12/06 02:04:16;;;;;;;138.37;52.20;;;;;;;3.39;89.86;100948.67;1662763;85;21021;-78
2022/12/06 02:07:01;;;;;;;;;;;;;;;3.26;89.87;100929.27;1666385;85;21826;-77
2022/12/06 02:09:47;;;;;;;141.67;50.70;;;;;;;3.39;89.92;100948.25;1663318;83;20151;-77
2022/12/06 02:12:32;;;;;;;134.12;53.05;;;;;;;3.40;89.92;100947.84;1666080;84;28053;-77
2022/12/06 02:15:18;;;;;;;136.97;55.65;;;;;;;3.41;89.92;100953.39;1664945;84;21869;-78
2022/12/06 02:18:16;;;;;;;136.07;53.87;;;;;;;3.41;89.92;100952.98;1667936;84;20925;-77
2022/12/06 02:21:15;;;;;;;153.32;55.95;;;;;;;3.44;89.93;100952.17;1664641;85;20962;-78
2022/12/06 02:24:23;;;;;;;134.97;55.30;;;;;;;3.43;89.96;100941.09;1667508;83;20898;-78
2022/12/06 02:28:00;;;;;;;140.07;53.45;;;;;;;3.45;89.96;100934.31;1665261;85;21475;-77
2022/12/06 02:30:53;;;;;;;138.47;53.35;;;;;;;3.46;89.95;100927.50;1669982;83;20958;-78
2022/12/06 02:34:00;;;;;;;145.32;53.85;;;;;;;3.47;89.97;100921.55;1663619;85;21514;-77
2022/12/06 02:36:54;;;;;;;126.27;51.63;;;;;;;3.49;89.98;100923.72;1666961;83;20957;-77
2022/12/06 02:39:56;;;;;;;139.57;53.55;;;;;;;3.50;89.98;100925.44;1666197;85;21513;-78
2022/12/06 02:42:49;;;;;;;135.88;52.30;;;;;;;3.51;90.00;100920.36;1666547;85;21564;-78
2022/12/06 02:45:38;;;;;;;138.18;53.52;;;;;;;3.51;90.00;100910.13;1662384;84;21909;-79
2022/12/06 02:48:24;;;;;;;143.43;56.08;;;;;;;3.53;90.01;100906.33;1661755;85;21866;-77
2022/12/06 02:51:13;;;;;;;145.32;54.80;;;;;;;3.53;90.03;100902.48;1667085;84;20924;-78
2022/12/06 02:54:02;;;;;;;137.80;52.30;;;;;;;3.54;90.03;100902.52;1667016;84;21426;-77
2022/12/06 02:56:47;;;;;;;126.27;50.15;;;;;;;3.55;90.04;100892.73;1662460;84;20934;-77
2022/12/06 02:59:32;;;;;;;133.87;52.25;;;;;;;3.55;90.04;100881.23;1644769;85;21057;-78
2022/12/06 03:02:17;;;;;;;128.47;50.73;;;;;;;3.56;90.06;100874.42;1615638;86;20944;-77
2022/12/06 03:05:14;;;;;;;126.23;51.87;;;;;;;3.57;90.08;100874.86;1626666;86;20918;-77
2022/12/06 03:08:02;;;;;;;125.70;51.23;;;;;;;3.58;90.08;100875.30;1647545;85;25564;-77
2022/12/06 03:10:52;;;;;;;131.30;52.53;;;;;;;3.58;90.08;100873.61;1646850;85;20958;-77
2022/12/06 03:13:57;;;;;;;120.82;50.75;;;;;;;3.60;90.09;100877.47;1646096;85;20973;-78
2022/12/06 03:16:56;;;;;;;122.85;49.20;;;;;;;3.60;90.10;100877.05;1609999;86;20978;-77
2022/12/06 03:19:42;;;;;;;131.63;50.52;;;;;;;3.61;90.10;100880.05;1641079;85;21035;-77
2022/12/06 03:22:32;;;;;;;;;;;;;;;3.62;90.13;100874.52;1677971;84;20914;-78
2022/12/06 03:25:17;;;;;;;113.08;45.80;;;;;;;3.62;90.20;100865.57;1673521;84;20157;-78
2022/12/06 03:28:06;;;;;;;113.15;47.58;;;;;;;3.62;90.16;100857.90;1675306;84;21568;-77
2022/12/06 03:30:53;;;;;;;139.65;50.15;;;;;;;3.63;90.17;100851.53;1676025;84;20910;-78
2022/12/06 03:33:43;;;;;;;123.95;49.18;;;;;;;3.63;90.17;100849.39;1673478;84;21029;-78
2022/12/06 03:36:30;;;;;;;140.57;50.12;;;;;;;3.64;90.16;100850.66;1674581;84;21002;-78
2022/12/06 03:39:26;;;;;;;126.50;49.18;;;;;;;3.65;90.14;100845.12;1675940;84;21533;-78
2022/12/06 03:42:12;;;;;;;126.80;51.58;;;;;;;3.64;90.16;100838.30;1674401;84;20926;-78
2022/12/06 03:44:58;;;;;;;146.13;50.75;;;;;;;3.63;90.16;100835.33;1672300;84;21818;-78
2022/12/06 03:47:49;;;;;;;;;;;;;;;3.63;90.19;100845.56;1673266;83;20969;-78
2022/12/06 03:50:49;;;;;;;124.25;44.55;;;;;;;3.63;90.25;100845.14;1672292;84;20478;-78
2022/12/06 03:53:33;;;;;;;120.45;48.05;;;;;;;3.63;90.17;100840.45;1676725;84;21471;-78
2022/12/06 03:56:20;;;;;;;139.92;48.23;;;;;;;3.62;90.23;100841.28;1665362;84;20974;-78
2022/12/06 03:59:07;;;;;;;129.80;47.70;;;;;;;3.62;90.25;100842.56;1661151;83;21545;-78
2022/12/06 04:01:51;;;;;;;118.42;49.38;;;;;;;3.62;90.25;100834.47;1664278;84;20962;-78
2022/12/06 04:04:36;;;;;;;118.17;48.30;;;;;;;3.63;90.27;100838.75;1663840;84;21561;-78
2022/12/06 04:07:21;;;;;;;127.42;50.52;;;;;;;3.64;90.27;100839.16;1663050;85;20918;-78
2022/12/06 04:10:07;;;;;;;111.37;46.80;;;;;;;3.64;90.29;100836.60;1660172;84;20915;-78
2022/12/06 04:13:01;;;;;;;119.47;46.95;;;;;;;3.64;90.27;100834.05;1653250;84;464825;-78
2022/12/06 04:15:46;;;;;;;132.60;48.75;;;;;;;3.55;90.30;100810.06;1662547;84;21440;-78
2022/12/06 04:18:31;;;;;;;124.65;49.65;;;;;;;3.67;90.32;100838.34;1657049;85;21445;-78
2022/12/06 04:24:17;;;;;;;154.42;48.65;;;;;;;3.68;90.32;100839.20;1661902;85;20954;-78
2022/12/06 04:39:18;;;;;;;129.45;47.95;;;;;;;3.69;90.32;100822.61;1664739;84;21451;-78
2022/12/06 04:45:08;;;;;;;120.87;47.83;;;;;;;3.71;90.37;100818.80;1632045;85;21530;-78
2022/12/06 04:47:52;;;;;;;125.90;46.90;;;;;;;3.70;90.38;100817.08;1612512;87;21438;-77
2022/12/06 04:50:37;;;;;;;117.82;48.40;;;;;;;3.71;90.39;100823.91;1615660;86;21498;-78
2022/12/06 04:53:22;;;;;;;119.60;46.95;;;;;;;3.71;90.37;100827.75;1610331;86;20934;-78
2022/12/06 04:56:08;;;;;;;121.95;46.80;;;;;;;3.71;90.39;100825.19;1614773;87;21553;-78
2022/12/06 04:58:53;;;;;;;110.60;47.37;;;;;;;3.71;90.39;100822.63;1626801;86;21014;-78
2022/12/06 05:01:38;;;;;;;111.10;46.70;;;;;;;3.71;90.42;100826.05;1627694;86;21425;-78
2022/12/06 05:04:23;;;;;;;122.33;47.35;;;;;;;3.71;90.42;100831.16;1627579;86;21529;-78
2022/12/06 05:07:10;;;;;;;111.55;46.35;;;;;;;3.72;90.45;100828.19;1627339;86;20975;-78
2022/12/06 05:09:55;;;;;;;104.12;45.20;;;;;;;3.72;90.46;100825.21;1623734;86;20980;-78
2022/12/06 05:12:40;;;;;;;103.25;45.55;;;;;;;3.72;90.45;100817.95;1624735;86;20991;-78
2022/12/06 05:15:25;;;;;;;116.00;45.90;;;;;;;3.72;90.47;100820.09;1627265;86;20963;-78
2022/12/06 05:18:09;;;;;;;115.62;45.35;;;;;;;3.72;90.46;100812.84;1629205;87;21345;-78
2022/12/06 05:21:15;;;;;;;119.50;45.13;;;;;;;3.74;90.49;100815.01;1624301;86;21613;-78
2022/12/06 05:23:59;;;;;;;108.20;44.50;;;;;;;3.74;90.49;100818.84;1627518;86;21080;-78
2022/12/06 05:26:44;;;;;;;108.72;43.73;;;;;;;3.74;90.51;100820.98;1627422;86;21405;-78
2022/12/06 05:29:30;;;;;;;116.03;44.38;;;;;;;3.75;90.52;100825.68;1628475;87;20927;-78
2022/12/06 05:32:15;;;;;;;105.70;43.17;;;;;;;3.75;90.51;100826.54;1629039;86;21596;-78
2022/12/06 05:34:59;;;;;;;109.03;42.93;;;;;;;3.75;90.52;100826.54;1628471;86;21428;-78
2022/12/06 05:37:45;;;;;;;114.72;44.08;;;;;;;3.76;90.54;100819.72;1653432;85;177135;-78
2022/12/06 05:40:29;;;;;;;108.07;42.03;;;;;;;3.76;90.55;100821.00;1674443;83;21000;-79
2022/12/06 05:43:15;;;;;;;106.65;42.27;;;;;;;3.76;90.55;100821.86;1673907;84;20974;-78
2022/12/06 05:46:00;;;;;;;107.15;43.28;;;;;;;3.77;90.58;100819.75;1675009;83;20970;-78
2022/12/06 05:48:45;;;;;;;97.17;38.65;;;;;;;3.77;90.55;100817.19;1678198;83;21006;-78
2022/12/06 05:51:30;;;;;;;99.67;41.58;;;;;;;3.76;90.55;100803.96;1675348;83;21548;-78
2022/12/06 05:54:15;;;;;;;87.82;38.35;;;;;;;3.76;90.60;100797.56;1676066;83;21328;-77
2022/12/06 05:57:00;;;;;;;108.35;44.55;;;;;;;3.78;90.59;100796.31;1673937;83;21018;-78
2022/12/06 05:59:45;;;;;;;98.85;41.45;;;;;;;3.78;90.60;100800.15;1669311;83;20974;-78
2022/12/06 06:02:30;;;;;;;107.50;43.05;;;;;;;3.77;90.62;100800.56;1669401;84;21002;-78
2022/12/06 06:05:15;;;;;;;121.85;44.30;;;;;;;3.78;90.62;100801.01;1670282;84;20974;-78
2022/12/06 06:08:00;;;;;;;100.87;43.60;;;;;;;3.79;90.66;100798.03;1670865;85;20909;-78
2022/12/06 06:10:45;;;;;;;109.45;42.48;;;;;;;3.79;90.63;100801.45;1668522;85;21469;-78
2022/12/06 06:13:30;;;;;;;91.57;39.73;;;;;;;3.79;90.66;100796.75;1671556;83;20899;-78
2022/12/06 06:16:15;;;;;;;106.72;41.42;;;;;;;3.78;90.64;100802.70;1671887;83;20926;-78
2022/12/06 06:19:00;;;;;;;94.75;41.48;;;;;;;3.78;90.65;100795.03;1672557;85;20955;-78
2022/12/06 06:21:46;;;;;;;87.30;39.13;;;;;;;3.79;90.66;100799.31;1667978;84;21002;-78
2022/12/06 06:24:40;;;;;;;91.15;37.98;;;;;;;3.78;90.65;100801.01;1671573;85;21418;-78
2022/12/06 06:27:24;;;;;;;84.15;37.88;;;;;;;3.79;90.69;100798.89;1671177;83;20930;-78
2022/12/06 06:30:11;;;;;;;101.80;37.38;;;;;;;3.78;90.69;100802.29;1669602;85;20969;-78
2022/12/06 06:32:56;;;;;;;76.70;35.65;;;;;;;3.80;90.69;100807.42;1671874;84;21529;-78
2022/12/06 06:35:41;;;;;;;83.67;34.60;;;;;;;3.79;90.68;100805.29;1608265;82;5001487;-78
2022/12/06 06:38:26;;;;;;;80.47;34.98;;;;;;;3.79;90.72;100804.01;1663184;85;21901;-78
2022/12/06 06:41:11;;;;;;;78.30;34.53;;;;;;;3.81;90.72;100812.56;1668339;85;21824;-78
2022/12/06 06:43:56;;;;;;;77.67;32.88;;;;;;;3.79;90.68;100801.45;1664604;85;20981;-78
2022/12/06 06:46:41;;;;;;;82.80;34.27;;;;;;;3.79;90.72;100804.01;1633592;87;20975;-78
2022/12/06 06:49:26;;;;;;;80.50;33.28;;;;;;;3.80;90.71;100800.61;1633953;87;21374;-78
2022/12/06 06:52:11;;;;;;;75.08;32.95;;;;;;;3.81;90.72;100806.59;1621467;85;20926;-78
2022/12/06 06:54:56;;;;;;;74.62;31.97;;;;;;;3.80;90.72;100809.56;1671558;83;20958;-78
2022/12/06 06:57:41;;;;;;;71.80;31.87;;;;;;;3.80;90.73;100812.12;1667095;85;21356;-78
2022/12/06 07:00:26;;;;;;;65.78;30.35;;;;;;;3.80;90.73;100818.52;1673939;83;20956;-77
2022/12/06 07:03:15;;;;;;;86.92;31.55;;;;;;;3.81;90.78;100818.95;1671113;84;20910;-77
2022/12/06 07:06:04;;;;;;;79.95;32.28;;;;;;;3.82;90.76;100822.38;1666999;83;20993;-77
2022/12/06 07:08:49;;;;;;;75.17;31.93;;;;;;;3.81;90.76;100818.95;1668834;83;20953;-78
2022/12/06 07:11:34;;;;;;;62.78;29.55;;;;;;;3.81;90.78;100813.84;1667208;84;21481;-78
2022/12/06 07:14:19;;;;;;;68.10;30.12;;;;;;;3.82;90.78;100809.59;1669923;83;21873;-77
2022/12/06 07:17:04;;;;;;;66.05;29.25;;;;;;;3.82;90.80;100811.73;1664955;83;20957;-78
2022/12/06 07:19:49;;;;;;;65.32;29.82;;;;;;;3.84;90.82;100807.91;1667043;83;20909;-78
2022/12/06 07:22:34;;;;;;;75.42;29.70;;;;;;;3.84;90.83;100798.95;1668285;83;20906;-78
2022/12/06 07:25:19;;;;;;;64.15;27.80;;;;;;;3.84;90.83;100796.41;1668439;84;21545;-78
2022/12/06 07:28:05;;;;;;;71.17;28.27;;;;;;;3.83;90.81;100782.75;1670321;85;20934;-78
2022/12/06 07:30:49;;;;;;;66.53;27.13;;;;;;;3.84;90.86;100787.45;1669153;85;20924;-78
2022/12/06 07:33:35;;;;;;;57.58;26.55;;;;;;;3.84;90.85;100783.20;1671183;84;21001;-78
2022/12/06 07:36:21;;;;;;;57.85;26.65;;;;;;;3.85;90.85;100785.33;1673202;80;21293;-78
2022/12/06 07:39:06;;;;;;;62.88;27.32;;;;;;;3.84;90.83;100781.91;1674141;83;20918;-78
2022/12/06 07:45:00;;;;;;;55.12;25.10;;;;;;;3.84;90.85;100781.91;1668108;83;21433;-78
2022/12/06 07:47:45;;;;;;;62.00;27.67;;;;;;;3.84;90.84;100779.78;1669912;83;21010;-78
2022/12/06 07:50:32;;;;;;;59.58;26.27;;;;;;;3.84;90.88;100789.59;1670497;83;20924;-78
2022/12/06 07:53:16;;;;;;;50.52;24.05;;;;;;;3.85;90.87;100796.42;1667146;83;20928;-77
2022/12/06 07:56:08;;;;;;;49.53;22.37;;;;;;;3.85;90.89;100800.27;1665537;84;21745;-78
2022/12/06 07:58:53;;;;;;;53.45;24.25;;;;;;;3.86;90.89;100790.47;1669824;84;20961;-77
2022/12/06 08:01:37;;;;;;;51.08;23.70;;;;;;;3.87;90.90;100789.63;1668253;83;21338;-77
2022/12/06 08:04:23;;;;;;;56.35;24.75;;;;;;;3.89;90.91;100792.20;1669897;83;21427;-77
2022/12/06 08:07:08;;;;;;;56.88;25.12;;;;;;;3.89;90.91;100789.23;1661778;83;30783;-77
2022/12/06 08:09:53;;;;;;;60.03;25.95;;;;;;;3.92;90.93;100787.14;1668710;83;20953;-77
2022/12/06 08:12:38;;;;;;;59.95;25.70;;;;;;;3.92;90.92;100790.55;1671670;83;21008;-78
2022/12/06 08:15:22;;;;;;;48.73;24.12;;;;;;;3.93;90.91;100792.27;1668592;83;20953;-78
2022/12/06 08:18:08;;;;;;;54.42;25.02;;;;;;;3.95;90.90;100792.30;1667998;83;21512;-78
2022/12/06 08:20:52;;;;;;;48.63;23.18;;;;;;;3.96;90.93;100790.17;1664229;83;21504;-78
2022/12/06 08:23:38;;;;;;;57.58;25.60;;;;;;;3.97;90.92;100788.06;1666809;83;20924;-78
2022/12/06 08:26:23;;;;;;;55.48;25.27;;;;;;;3.97;90.93;100784.22;1671448;83;21387;-78
2022/12/06 08:29:08;;;;;;;53.47;24.23;;;;;;;3.97;90.91;100779.11;1667538;84;20972;-77
2022/12/06 08:31:53;;;;;;;54.67;25.08;;;;;;;3.99;90.96;100787.66;1668779;83;21033;-76
2022/12/06 08:34:38;;;;;;;55.45;24.55;;;;;;;4.01;90.95;100780.01;1669950;83;21029;-78
2022/12/06 08:37:23;;;;;;;52.17;24.23;;;;;;;4.02;90.95;100775.33;1665824;83;21492;-78
2022/12/06 08:40:09;;;;;;;56.40;24.30;;;;;;;4.01;90.95;100775.75;1668904;83;21490;-78
2022/12/06 08:42:53;;;;;;;58.42;25.72;;;;;;;4.03;90.96;100775.35;1668724;83;21011;-78
2022/12/06 08:45:38;;;;;;;58.73;24.63;;;;;;;4.04;90.99;100786.45;1669132;83;20921;-78
2022/12/06 08:48:23;;;;;;;50.28;24.27;;;;;;;4.04;90.96;100777.48;1666345;83;20989;-78
2022/12/06 08:51:08;;;;;;;52.33;24.82;;;;;;;4.04;90.94;100778.77;1668395;85;21374;-78
2022/12/06 08:53:54;;;;;;;53.50;25.05;;;;;;;4.04;90.97;100780.91;1666370;85;21001;-78
2022/12/06 08:56:39;;;;;;;60.00;26.57;;;;;;;4.04;90.98;100773.23;1669972;83;21711;-77
2022/12/06 08:59:24;;;;;;;60.70;27.42;;;;;;;4.05;90.99;100774.09;1668392;85;21059;-77
2022/12/06 09:02:11;;;;;;;65.72;30.00;;;;;;;4.04;90.98;100775.80;1667667;85;20965;-78
2022/12/06 09:04:56;;;;;;;61.15;29.27;;;;;;;4.06;91.03;100775.39;1668236;83;20937;-78
2022/12/06 09:07:41;;;;;;;58.58;27.80;;;;;;;4.07;91.00;100769.86;1667403;83;21000;-78
2022/12/06 09:10:26;;;;;;;62.95;29.90;;;;;;;4.08;91.03;100769.02;1671688;83;21446;-77
2022/12/06 09:13:11;;;;;;;56.50;28.73;;;;;;;4.10;91.06;100768.62;1669371;83;21540;-78
2022/12/06 09:15:56;;;;;;;55.38;28.42;;;;;;;4.10;91.01;100760.52;1664651;83;21423;-78
2022/12/06 09:18:43;;;;;;;60.98;27.60;;;;;;;4.10;91.02;100763.08;1664392;83;20969;-78
2022/12/06 09:21:29;;;;;;;50.35;25.35;;;;;;;4.12;91.05;100764.38;1668743;83;21012;-78
2022/12/06 09:24:16;;;;;;;48.40;25.35;;;;;;;4.13;91.07;100759.28;1667846;83;21805;-78
2022/12/06 09:27:01;;;;;;;51.53;24.95;;;;;;;4.15;91.08;100761.86;1666258;85;20949;-78
2022/12/06 09:29:46;;;;;;;43.17;23.92;;;;;;;4.17;91.10;100761.00;1668554;83;21549;-78
2022/12/06 09:32:32;;;;;;;47.20;22.82;;;;;;;4.20;91.12;100753.36;1667229;83;20945;-77
2022/12/06 09:35:17;;;;;;;46.10;22.37;;;;;;;4.22;91.15;100745.70;1669367;83;20921;-78
2022/12/06 09:38:02;;;;;;;46.00;23.10;;;;;;;4.25;91.15;100750.44;1665404;85;21519;-77
2022/12/06 09:41:24;;;;;;;43.17;22.00;;;;;;;4.27;91.13;100748.76;1673028;83;20909;-78
2022/12/06 09:44:31;;;;;;;42.98;21.45;;;;;;;4.28;91.13;100747.91;1664776;83;21501;-78
2022/12/06 09:47:39;;;;;;;43.00;21.57;;;;;;;4.28;91.10;100741.52;1678033;83;21508;-78
2022/12/06 09:51:03;;;;;;;43.23;21.23;;;;;;;4.29;91.10;100737.25;1670177;83;20957;-78
2022/12/06 09:54:15;;;;;;;42.00;20.63;;;;;;;4.30;91.14;100730.88;1663524;84;21033;-77
2022/12/06 09:57:37;;;;;;;40.48;20.92;;;;;;;4.32;91.18;100725.35;1663842;83;21385;-78
2022/12/06 10:00:23;;;;;;;42.17;21.27;;;;;;;4.33;91.17;100729.63;1664499;85;20969;-78
2022/12/06 10:03:37;;;;;;;39.25;21.05;;;;;;;4.36;91.21;100723.69;1671374;83;21358;-78
2022/12/06 10:06:26;;;;;;;44.03;22.00;;;;;;;4.38;91.21;100716.02;1630236;85;21572;-78
2022/12/06 10:09:27;;;;;;;41.48;21.85;;;;;;;4.39;91.20;100717.73;1667884;85;20905;-78
2022/12/06 10:12:40;;;;;;;45.88;22.93;;;;;;;4.42;91.22;100719.05;1672377;83;21382;-77
2022/12/06 10:15:56;;;;;;;47.25;22.48;;;;;;;4.44;91.21;100725.05;1651457;85;20968;-77
2022/12/06 10:18:56;;;;;;;;;;;;;;;4.47;91.23;100716.13;1668090;83;21373;-78
2022/12/06 10:22:01;;;;;;;37.33;20.43;;;;;;;4.49;91.24;100714.02;1677066;83;20157;-78
2022/12/06 10:24:57;;;;;;;39.78;22.10;;;;;;;4.51;91.23;100712.75;1674584;83;20944;-78
2022/12/06 10:28:10;;;;;;;42.05;21.85;;;;;;;4.51;91.23;100707.20;1650698;85;26343;-78
2022/12/06 10:31:00;;;;;;;41.85;21.35;;;;;;;4.52;91.22;100707.64;1674030;83;21912;-78
2022/12/06 10:34:08;;;;;;;38.35;21.33;;;;;;;4.53;91.20;100708.50;1677510;83;20937;-77
2022/12/06 10:37:04;;;;;;;37.85;19.70;;;;;;;4.52;91.18;100701.24;1664483;83;21390;-77
2022/12/06 10:40:00;;;;;;;44.67;21.05;;;;;;;4.52;91.14;100701.66;1671217;83;20905;-78
2022/12/06 10:43:05;;;;;;;39.70;19.65;;;;;;;4.50;91.16;100702.07;1675367;85;21331;-76
2022/12/06 10:49:49;;;;;;;39.33;19.98;;;;;;;4.48;91.15;100695.66;1676174;83;20929;-78
2022/12/06 10:52:45;;;;;;;39.05;21.40;;;;;;;4.47;91.14;100693.08;1670287;83;20906;-78
2022/12/06 10:55:57;;;;;;;40.88;20.95;;;;;;;4.46;91.15;100696.06;1673720;83;20879;-78
2022/12/06 10:59:08;;;;;;;39.98;20.17;;;;;;;4.44;91.12;100695.19;1678856;81;21805;-78
2022/12/06 11:01:56;;;;;;;43.58;21.73;;;;;;;4.45;91.17;100694.34;1671123;83;20972;-78
2022/12/06 11:04:44;;;;;;;43.55;21.05;;;;;;;4.44;91.18;100694.33;1670903;83;21021;-76
2022/12/06 11:07:37;;;;;;;37.33;20.08;;;;;;;4.44;91.20;100693.91;1670315;85;20929;-77
2022/12/06 11:10:26;;;;;;;45.30;22.00;;;;;;;4.45;91.19;100687.08;1669011;84;21449;-77
2022/12/06 11:13:28;;;;;;;40.95;21.90;;;;;;;4.46;91.22;100685.82;1682045;82;20965;-77
2022/12/06 11:16:26;;;;;;;44.50;21.55;;;;;;;4.47;91.20;100680.28;1669190;85;21533;-77
2022/12/06 11:19:39;;;;;;;43.75;21.12;;;;;;;4.46;91.21;100676.86;1671352;83;20925;-77
2022/12/06 11:23:05;;;;;;;43.25;21.27;;;;;;;4.45;91.16;100676.42;1671710;83;20922;-77
2022/12/06 11:26:10;;;;;;;37.28;20.12;;;;;;;4.45;91.16;100670.02;1685405;83;20902;-77
2022/12/06 11:29:08;;;;;;;40.85;22.22;;;;;;;4.46;91.13;100661.92;1675962;83;21381;-77
2022/12/06 11:31:57;;;;;;;36.58;19.37;;;;;;;4.45;91.19;100657.64;1671716;83;21785;-77
2022/12/06 11:34:53;;;;;;;39.45;20.10;;;;;;;4.46;91.21;100655.09;1647786;85;20929;-77
2022/12/06 11:37:39;;;;;;;37.40;20.60;;;;;;;4.47;91.21;100649.55;1669636;83;20926;-77
2022/12/06 11:40:35;;;;;;;42.65;21.55;;;;;;;4.47;91.22;100650.84;1672452;84;21384;-77
2022/12/06 11:43:25;;;;;;;37.75;20.43;;;;;;;4.47;91.24;100645.30;1677233;83;21557;-77
2022/12/06 11:46:13;;;;;;;35.88;20.82;;;;;;;4.49;91.24;100646.59;1671202;84;21837;-77
2022/12/06 11:49:15;;;;;;;38.80;21.45;;;;;;;4.50;91.27;100638.92;1670743;85;20961;-77
2022/12/06 11:52:14;;;;;;;37.30;21.17;;;;;;;4.52;91.26;100635.09;1660454;85;20977;-77
2022/12/06 11:55:15;;;;;;;34.80;19.67;;;;;;;4.53;91.28;100637.67;1667616;84;20945;-77
2022/12/06 11:58:18;;;;;;;33.25;18.98;;;;;;;4.55;91.26;100641.09;1673779;84;21476;-77
2022/12/06 12:01:10;;;;;;;36.80;18.00;;;;;;;4.56;91.26;100652.20;1660816;84;20941;-77
2022/12/06 12:03:55;;;;;;;30.23;18.02;;;;;;;4.55;91.23;100637.26;1666697;83;21392;-77
2022/12/06 12:06:40;;;;;;;30.32;17.55;;;;;;;4.57;91.23;100642.39;1675803;85;21528;-77
2022/12/06 12:09:30;;;;;;;27.40;17.85;;;;;;;4.56;91.20;100631.30;1673846;83;20910;-77
2022/12/06 12:12:20;;;;;;;29.57;16.50;;;;;;;4.56;91.20;100627.88;1673562;84;21261;-77
2022/12/06 12:15:05;;;;;;;30.10;16.97;;;;;;;4.56;91.23;100632.58;1670691;83;20996;-77
2022/12/06 12:17:53;;;;;;;28.32;17.77;;;;;;;4.56;91.21;100625.31;1676344;83;21037;-77
2022/12/06 12:20:42;;;;;;;33.08;19.37;;;;;;;4.57;91.25;100624.05;1673524;83;20905;-77
2022/12/06 12:23:35;;;;;;;34.50;19.25;;;;;;;4.58;91.23;100618.50;1668402;83;20986;-77
2022/12/06 12:26:21;;;;;;;31.42;18.90;;;;;;;4.57;91.22;100612.95;1667730;85;21806;-77
2022/12/06 12:29:17;;;;;;;31.55;19.00;;;;;;;4.56;91.22;100603.13;1671322;83;20953;-77
2022/12/06 12:32:07;;;;;;;34.48;20.40;;;;;;;4.55;91.18;100608.23;1661295;84;20910;-77
2022/12/06 12:34:52;;;;;;;31.37;19.10;;;;;;;4.53;91.15;100605.66;1670977;83;21021;-77
2022/12/06 12:37:37;;;;;;;33.95;20.48;;;;;;;4.52;91.20;100605.22;1673443;84;21477;-77
2022/12/06 12:40:29;;;;;;;29.02;18.67;;;;;;;4.51;91.17;100597.11;1667237;85;21401;-77
2022/12/06 12:43:27;;;;;;;29.15;18.90;;;;;;;4.50;91.18;100600.52;1668311;84;21398;-77
2022/12/06 12:46:19;;;;;;;28.65;18.52;;;;;;;4.50;91.16;100602.22;1675546;85;20878;-77
2022/12/06 12:49:33;;;;;;;28.30;19.32;;;;;;;4.49;91.20;100603.92;1658015;85;21009;-77
2022/12/06 12:52:28;;;;;;;29.52;19.15;;;;;;;4.50;91.24;100599.66;1652745;85;20953;-77
2022/12/06 12:55:23;;;;;;;;;;;;;;;4.51;91.26;100602.65;1674470;83;21469;-77
2022/12/06 12:58:11;;;;;;;29.90;19.62;;;;;;;4.50;91.22;100595.81;1667289;85;20572;-77
2022/12/06 13:01:01;;;;;;;31.07;18.98;;;;;;;4.48;91.23;100594.52;1668475;83;20974;-77
2022/12/06 13:03:46;;;;;;;34.30;19.85;;;;;;;4.49;91.24;100594.95;1672970;85;20937;-77
2022/12/06 13:06:53;;;;;;;37.83;20.93;;;;;;;4.49;91.22;100597.52;1669778;83;20985;-77
2022/12/06 13:10:13;;;;;;;30.77;19.37;;;;;;;4.47;91.14;100604.33;1669547;84;20921;-77
2022/12/06 13:13:06;;;;;;;37.38;20.70;;;;;;;4.43;91.10;100597.89;1671551;85;20920;-77
2022/12/06 13:15:55;;;;;;;34.33;20.57;;;;;;;4.42;91.12;100599.59;1660974;85;21512;-77
2022/12/06 13:18:50;;;;;;;41.55;21.23;;;;;;;4.38;91.10;100589.30;1679629;83;20950;-78
2022/12/06 13:21:39;;;;;;;42.65;21.95;;;;;;;4.37;91.09;100582.47;1667290;85;21441;-78
2022/12/06 13:24:33;;;;;;;38.00;20.90;;;;;;;4.35;91.12;100580.32;1674211;83;21404;-78